sensor_id;sensor_type;location;lat;lon;timestamp;P1;durP1;ratioP1;P2;durP2;ratioP2
9330;SDS011;4704;50.470;12.072;2023-06-14T00:00:50;5.38;;;4.97;;
9330;SDS011;4704;50.470;12.072;2023-06-14T00:03:18;5.18;;;4.78;;
9330;SDS011;4704;50.470;12.072;2023-06-14T00:05:47;5.25;;;4.75;;
9330;SDS011;4704;50.470;12.072;2023-06-14T00:08:14;4.97;;;4.55;;
9330;SDS011;4704;50.470;12.072;2023-06-14T00:10:44;5.22;;;4.75;;
9330;SDS011;4704;50.470;12.072;2023-06-14T00:13:13;5.22;;;4.82;;
9330;SDS011;4704;50.470;12.072;2023-06-14T00:15:41;5.40;;;5.00;;
9330;SDS011;4704;50.470;12.072;2023-06-14T00:18:09;5.70;;;5.20;;
9330;SDS011;4704;50.470;12.072;2023-06-14T00:20:37;5.25;;;4.85;;
9330;SDS011;4704;50.470;12.072;2023-06-14T00:23:04;5.28;;;4.88;;
9330;SDS011;4704;50.470;12.072;2023-06-14T00:25:32;5.18;;;4.78;;
9330;SDS011;4704;50.470;12.072;2023-06-14T00:28:00;5.82;;;4.88;;
9330;SDS011;4704;50.470;12.072;2023-06-14T00:30:29;5.38;;;4.93;;
9330;SDS011;4704;50.470;12.072;2023-06-14T00:32:57;5.45;;;4.95;;
9330;SDS011;4704;50.470;12.072;2023-06-14T00:35:25;5.20;;;4.80;;
9330;SDS011;4704;50.470;12.072;2023-06-14T00:37:52;5.05;;;4.72;;
9330;SDS011;4704;50.470;12.072;2023-06-14T00:40:21;4.90;;;4.50;;
9330;SDS011;4704;50.470;12.072;2023-06-14T00:42:48;5.68;;;5.22;;
9330;SDS011;4704;50.470;12.072;2023-06-14T00:45:16;5.45;;;5.00;;
9330;SDS011;4704;50.470;12.072;2023-06-14T00:47:45;5.22;;;4.82;;
9330;SDS011;4704;50.470;12.072;2023-06-14T00:50:13;5.10;;;4.70;;
9330;SDS011;4704;50.470;12.072;2023-06-14T00:52:40;5.03;;;4.63;;
9330;SDS011;4704;50.470;12.072;2023-06-14T00:55:09;5.07;;;4.70;;
9330;SDS011;4704;50.470;12.072;2023-06-14T00:57:36;5.47;;;5.07;;
9330;SDS011;4704;50.470;12.072;2023-06-14T01:00:05;5.20;;;4.80;;
9330;SDS011;4704;50.470;12.072;2023-06-14T01:02:35;5.38;;;4.97;;
9330;SDS011;4704;50.470;12.072;2023-06-14T01:05:04;4.88;;;4.43;;
9330;SDS011;4704;50.470;12.072;2023-06-14T01:07:34;5.22;;;4.65;;
9330;SDS011;4704;50.470;12.072;2023-06-14T01:10:10;5.18;;;4.78;;
9330;SDS011;4704;50.470;12.072;2023-06-14T01:12:43;5.20;;;4.80;;
9330;SDS011;4704;50.470;12.072;2023-06-14T01:15:12;4.72;;;4.22;;
9330;SDS011;4704;50.470;12.072;2023-06-14T01:17:40;4.82;;;4.43;;
9330;SDS011;4704;50.470;12.072;2023-06-14T01:20:13;4.80;;;4.43;;
9330;SDS011;4704;50.470;12.072;2023-06-14T01:22:48;4.75;;;4.35;;
9330;SDS011;4704;50.470;12.072;2023-06-14T01:25:16;5.32;;;4.82;;
9330;SDS011;4704;50.470;12.072;2023-06-14T01:27:46;5.40;;;4.90;;
9330;SDS011;4704;50.470;12.072;2023-06-14T01:30:14;5.10;;;4.60;;
9330;SDS011;4704;50.470;12.072;2023-06-14T01:32:42;5.20;;;4.30;;
9330;SDS011;4704;50.470;12.072;2023-06-14T01:35:11;5.00;;;4.60;;
9330;SDS011;4704;50.470;12.072;2023-06-14T01:37:38;4.90;;;4.50;;
9330;SDS011;4704;50.470;12.072;2023-06-14T01:40:09;4.63;;;4.22;;
9330;SDS011;4704;50.470;12.072;2023-06-14T01:42:36;4.82;;;4.43;;
9330;SDS011;4704;50.470;12.072;2023-06-14T01:45:06;4.50;;;4.10;;
9330;SDS011;4704;50.470;12.072;2023-06-14T01:47:34;5.85;;;4.57;;
9330;SDS011;4704;50.470;12.072;2023-06-14T01:50:02;4.55;;;4.22;;
9330;SDS011;4704;50.470;12.072;2023-06-14T01:52:30;5.28;;;4.57;;
9330;SDS011;4704;50.470;12.072;2023-06-14T01:54:57;5.10;;;4.60;;
9330;SDS011;4704;50.470;12.072;2023-06-14T01:57:28;4.82;;;4.43;;
9330;SDS011;4704;50.470;12.072;2023-06-14T01:59:56;4.60;;;4.20;;
9330;SDS011;4704;50.470;12.072;2023-06-14T02:02:24;5.13;;;4.13;;
9330;SDS011;4704;50.470;12.072;2023-06-14T02:04:51;4.93;;;4.53;;
9330;SDS011;4704;50.470;12.072;2023-06-14T02:07:22;4.80;;;4.30;;
9330;SDS011;4704;50.470;12.072;2023-06-14T02:09:50;4.85;;;4.40;;
9330;SDS011;4704;50.470;12.072;2023-06-14T02:12:18;4.53;;;4.13;;
9330;SDS011;4704;50.470;12.072;2023-06-14T02:14:46;5.65;;;4.78;;
9330;SDS011;4704;50.470;12.072;2023-06-14T02:17:14;4.43;;;4.10;;
9330;SDS011;4704;50.470;12.072;2023-06-14T02:19:42;4.90;;;4.22;;
9330;SDS011;4704;50.470;12.072;2023-06-14T02:22:10;4.35;;;4.03;;
9330;SDS011;4704;50.470;12.072;2023-06-14T02:24:40;4.38;;;3.97;;
9330;SDS011;4704;50.470;12.072;2023-06-14T02:27:07;4.70;;;4.30;;
9330;SDS011;4704;50.470;12.072;2023-06-14T02:29:35;5.63;;;4.63;;
9330;SDS011;4704;50.470;12.072;2023-06-14T02:32:05;4.55;;;4.15;;
9330;SDS011;4704;50.470;12.072;2023-06-14T02:34:33;4.07;;;3.67;;
9330;SDS011;4704;50.470;12.072;2023-06-14T02:37:01;4.55;;;4.15;;
9330;SDS011;4704;50.470;12.072;2023-06-14T02:39:29;4.38;;;4.07;;
9330;SDS011;4704;50.470;12.072;2023-06-14T02:41:56;4.75;;;4.30;;
9330;SDS011;4704;50.470;12.072;2023-06-14T02:44:24;4.50;;;4.10;;
9330;SDS011;4704;50.470;12.072;2023-06-14T02:46:52;4.50;;;4.20;;
9330;SDS011;4704;50.470;12.072;2023-06-14T02:49:22;4.50;;;4.10;;
9330;SDS011;4704;50.470;12.072;2023-06-14T02:51:49;4.45;;;4.05;;
9330;SDS011;4704;50.470;12.072;2023-06-14T02:54:17;4.55;;;4.25;;
9330;SDS011;4704;50.470;12.072;2023-06-14T02:56:44;4.80;;;4.10;;
9330;SDS011;4704;50.470;12.072;2023-06-14T02:59:12;4.60;;;4.25;;
9330;SDS011;4704;50.470;12.072;2023-06-14T03:01:40;4.28;;;3.90;;
9330;SDS011;4704;50.470;12.072;2023-06-14T03:04:07;4.43;;;4.03;;
9330;SDS011;4704;50.470;12.072;2023-06-14T03:06:36;4.40;;;4.10;;
9330;SDS011;4704;50.470;12.072;2023-06-14T03:09:04;4.28;;;3.97;;
9330;SDS011;4704;50.470;12.072;2023-06-14T03:11:33;4.10;;;3.80;;
9330;SDS011;4704;50.470;12.072;2023-06-14T03:14:00;4.40;;;4.10;;
9330;SDS011;4704;50.470;12.072;2023-06-14T03:16:29;4.13;;;3.83;;
9330;SDS011;4704;50.470;12.072;2023-06-14T03:18:57;4.45;;;3.90;;
9330;SDS011;4704;50.470;12.072;2023-06-14T03:21:24;4.18;;;3.83;;
9330;SDS011;4704;50.470;12.072;2023-06-14T03:23:53;4.18;;;3.88;;
9330;SDS011;4704;50.470;12.072;2023-06-14T03:26:21;4.35;;;3.70;;
9330;SDS011;4704;50.470;12.072;2023-06-14T03:28:50;4.20;;;3.90;;
9330;SDS011;4704;50.470;12.072;2023-06-14T03:31:17;3.92;;;3.63;;
9330;SDS011;4704;50.470;12.072;2023-06-14T03:33:45;4.10;;;3.80;;
9330;SDS011;4704;50.470;12.072;2023-06-14T03:36:13;4.18;;;3.88;;
9330;SDS011;4704;50.470;12.072;2023-06-14T03:38:41;4.45;;;4.10;;
9330;SDS011;4704;50.470;12.072;2023-06-14T03:41:10;3.75;;;3.45;;
9330;SDS011;4704;50.470;12.072;2023-06-14T03:43:37;4.38;;;4.00;;
9330;SDS011;4704;50.470;12.072;2023-06-14T03:46:04;3.80;;;3.50;;
9330;SDS011;4704;50.470;12.072;2023-06-14T03:48:32;3.97;;;3.67;;
9330;SDS011;4704;50.470;12.072;2023-06-14T03:50:59;4.25;;;3.95;;
9330;SDS011;4704;50.470;12.072;2023-06-14T03:53:27;4.38;;;3.97;;
9330;SDS011;4704;50.470;12.072;2023-06-14T03:55:55;4.47;;;4.00;;
9330;SDS011;4704;50.470;12.072;2023-06-14T03:58:24;4.03;;;3.72;;
9330;SDS011;4704;50.470;12.072;2023-06-14T04:00:52;5.38;;;3.95;;
9330;SDS011;4704;50.470;12.072;2023-06-14T04:03:19;4.13;;;3.80;;
9330;SDS011;4704;50.470;12.072;2023-06-14T04:05:55;4.40;;;4.00;;
9330;SDS011;4704;50.470;12.072;2023-06-14T04:08:24;4.30;;;3.90;;
9330;SDS011;4704;50.470;12.072;2023-06-14T04:10:52;4.45;;;4.03;;
9330;SDS011;4704;50.470;12.072;2023-06-14T04:13:20;4.00;;;3.70;;
9330;SDS011;4704;50.470;12.072;2023-06-14T04:15:48;3.70;;;3.40;;
9330;SDS011;4704;50.470;12.072;2023-06-14T04:18:16;3.83;;;3.50;;
9330;SDS011;4704;50.470;12.072;2023-06-14T04:20:44;4.07;;;3.72;;
9330;SDS011;4704;50.470;12.072;2023-06-14T04:23:12;3.97;;;3.67;;
9330;SDS011;4704;50.470;12.072;2023-06-14T04:25:40;4.80;;;3.92;;
9330;SDS011;4704;50.470;12.072;2023-06-14T04:28:10;4.20;;;3.80;;
9330;SDS011;4704;50.470;12.072;2023-06-14T04:30:39;4.45;;;4.05;;
9330;SDS011;4704;50.470;12.072;2023-06-14T04:33:08;4.20;;;3.70;;
9330;SDS011;4704;50.470;12.072;2023-06-14T04:35:35;4.13;;;3.83;;
9330;SDS011;4704;50.470;12.072;2023-06-14T04:38:04;4.50;;;4.10;;
9330;SDS011;4704;50.470;12.072;2023-06-14T04:40:34;4.60;;;4.20;;
9330;SDS011;4704;50.470;12.072;2023-06-14T04:43:07;5.72;;;4.35;;
9330;SDS011;4704;50.470;12.072;2023-06-14T04:45:38;4.13;;;3.72;;
9330;SDS011;4704;50.470;12.072;2023-06-14T04:48:06;4.30;;;4.00;;
9330;SDS011;4704;50.470;12.072;2023-06-14T04:50:35;4.43;;;4.10;;
9330;SDS011;4704;50.470;12.072;2023-06-14T04:53:02;4.18;;;3.85;;
9330;SDS011;4704;50.470;12.072;2023-06-14T04:55:32;4.40;;;4.00;;
9330;SDS011;4704;50.470;12.072;2023-06-14T04:57:59;4.72;;;4.32;;
9330;SDS011;4704;50.470;12.072;2023-06-14T05:00:27;4.25;;;3.95;;
9330;SDS011;4704;50.470;12.072;2023-06-14T05:02:55;4.00;;;3.70;;
9330;SDS011;4704;50.470;12.072;2023-06-14T05:05:23;4.20;;;3.80;;
9330;SDS011;4704;50.470;12.072;2023-06-14T05:07:52;4.10;;;3.80;;
9330;SDS011;4704;50.470;12.072;2023-06-14T05:10:19;4.10;;;3.65;;
9330;SDS011;4704;50.470;12.072;2023-06-14T05:12:47;4.43;;;4.07;;
9330;SDS011;4704;50.470;12.072;2023-06-14T05:15:15;4.30;;;3.92;;
9330;SDS011;4704;50.470;12.072;2023-06-14T05:17:42;4.07;;;3.78;;
9330;SDS011;4704;50.470;12.072;2023-06-14T05:20:12;4.85;;;3.80;;
9330;SDS011;4704;50.470;12.072;2023-06-14T05:22:40;4.03;;;3.70;;
9330;SDS011;4704;50.470;12.072;2023-06-14T05:25:10;3.90;;;3.60;;
9330;SDS011;4704;50.470;12.072;2023-06-14T05:27:38;4.35;;;3.92;;
9330;SDS011;4704;50.470;12.072;2023-06-14T05:30:07;3.97;;;3.67;;
9330;SDS011;4704;50.470;12.072;2023-06-14T05:32:35;3.42;;;3.13;;
9330;SDS011;4704;50.470;12.072;2023-06-14T05:35:02;4.25;;;3.95;;
9330;SDS011;4704;50.470;12.072;2023-06-14T05:37:31;4.45;;;3.83;;
9330;SDS011;4704;50.470;12.072;2023-06-14T05:39:59;3.70;;;3.40;;
9330;SDS011;4704;50.470;12.072;2023-06-14T05:42:28;4.03;;;3.72;;
9330;SDS011;4704;50.470;12.072;2023-06-14T05:44:55;4.05;;;3.75;;
9330;SDS011;4704;50.470;12.072;2023-06-14T05:47:22;4.55;;;3.85;;
9330;SDS011;4704;50.470;12.072;2023-06-14T05:49:50;4.00;;;3.70;;
9330;SDS011;4704;50.470;12.072;2023-06-14T05:52:18;4.43;;;4.03;;
9330;SDS011;4704;50.470;12.072;2023-06-14T05:54:46;3.90;;;3.60;;
9330;SDS011;4704;50.470;12.072;2023-06-14T05:57:14;3.78;;;3.47;;
9330;SDS011;4704;50.470;12.072;2023-06-14T05:59:43;4.40;;;4.00;;
9330;SDS011;4704;50.470;12.072;2023-06-14T06:02:10;4.15;;;3.85;;
9330;SDS011;4704;50.470;12.072;2023-06-14T06:04:38;3.92;;;3.60;;
9330;SDS011;4704;50.470;12.072;2023-06-14T06:07:06;4.38;;;4.07;;
9330;SDS011;4704;50.470;12.072;2023-06-14T06:09:33;4.43;;;4.03;;
9330;SDS011;4704;50.470;12.072;2023-06-14T06:12:01;4.25;;;3.85;;
9330;SDS011;4704;50.470;12.072;2023-06-14T06:14:28;4.20;;;3.80;;
9330;SDS011;4704;50.470;12.072;2023-06-14T06:16:57;4.70;;;3.72;;
9330;SDS011;4704;50.470;12.072;2023-06-14T06:19:27;4.18;;;3.78;;
9330;SDS011;4704;50.470;12.072;2023-06-14T06:22:00;4.50;;;4.10;;
9330;SDS011;4704;50.470;12.072;2023-06-14T06:24:27;3.80;;;3.50;;
9330;SDS011;4704;50.470;12.072;2023-06-14T06:26:55;4.38;;;3.97;;
9330;SDS011;4704;50.470;12.072;2023-06-14T06:29:22;3.75;;;3.45;;
9330;SDS011;4704;50.470;12.072;2023-06-14T06:31:50;3.42;;;3.15;;
9330;SDS011;4704;50.470;12.072;2023-06-14T06:34:19;4.10;;;3.70;;
9330;SDS011;4704;50.470;12.072;2023-06-14T06:36:47;3.63;;;3.33;;
9330;SDS011;4704;50.470;12.072;2023-06-14T06:39:14;3.80;;;3.50;;
9330;SDS011;4704;50.470;12.072;2023-06-14T06:41:41;3.80;;;3.50;;
9330;SDS011;4704;50.470;12.072;2023-06-14T06:44:09;4.00;;;3.70;;
9330;SDS011;4704;50.470;12.072;2023-06-14T06:46:38;3.83;;;3.53;;
9330;SDS011;4704;50.470;12.072;2023-06-14T06:49:06;3.55;;;3.28;;
9330;SDS011;4704;50.470;12.072;2023-06-14T06:51:36;3.88;;;3.58;;
9330;SDS011;4704;50.470;12.072;2023-06-14T06:54:03;3.80;;;3.47;;
9330;SDS011;4704;50.470;12.072;2023-06-14T06:56:31;3.60;;;3.30;;
9330;SDS011;4704;50.470;12.072;2023-06-14T06:58:59;3.83;;;3.47;;
9330;SDS011;4704;50.470;12.072;2023-06-14T07:01:26;3.72;;;3.40;;
9330;SDS011;4704;50.470;12.072;2023-06-14T07:03:54;4.10;;;3.80;;
9330;SDS011;4704;50.470;12.072;2023-06-14T07:06:21;3.97;;;3.58;;
9330;SDS011;4704;50.470;12.072;2023-06-14T07:08:53;4.13;;;3.72;;
9330;SDS011;4704;50.470;12.072;2023-06-14T07:11:26;4.68;;;4.10;;
9330;SDS011;4704;50.470;12.072;2023-06-14T07:13:54;4.20;;;3.70;;
9330;SDS011;4704;50.470;12.072;2023-06-14T07:16:21;4.25;;;3.75;;
9330;SDS011;4704;50.470;12.072;2023-06-14T07:18:49;4.28;;;3.97;;
9330;SDS011;4704;50.470;12.072;2023-06-14T07:21:16;3.97;;;3.67;;
9330;SDS011;4704;50.470;12.072;2023-06-14T07:23:44;4.00;;;3.70;;
9330;SDS011;4704;50.470;12.072;2023-06-14T07:26:13;3.83;;;3.53;;
9330;SDS011;4704;50.470;12.072;2023-06-14T07:28:41;4.18;;;3.88;;
9330;SDS011;4704;50.470;12.072;2023-06-14T07:31:10;3.92;;;3.63;;
9330;SDS011;4704;50.470;12.072;2023-06-14T07:33:37;3.70;;;3.40;;
9330;SDS011;4704;50.470;12.072;2023-06-14T07:36:05;4.00;;;3.70;;
9330;SDS011;4704;50.470;12.072;2023-06-14T07:38:34;3.65;;;3.35;;
9330;SDS011;4704;50.470;12.072;2023-06-14T07:41:02;3.78;;;3.47;;
9330;SDS011;4704;50.470;12.072;2023-06-14T07:43:30;3.90;;;3.60;;
9330;SDS011;4704;50.470;12.072;2023-06-14T07:45:58;3.92;;;3.60;;
9330;SDS011;4704;50.470;12.072;2023-06-14T07:48:25;5.80;;;3.90;;
9330;SDS011;4704;50.470;12.072;2023-06-14T07:50:53;3.92;;;3.63;;
9330;SDS011;4704;50.470;12.072;2023-06-14T07:53:21;4.30;;;3.88;;
9330;SDS011;4704;50.470;12.072;2023-06-14T07:55:48;4.57;;;3.92;;
9330;SDS011;4704;50.470;12.072;2023-06-14T07:58:16;5.18;;;4.05;;
9330;SDS011;4704;50.470;12.072;2023-06-14T08:00:45;4.60;;;3.78;;
9330;SDS011;4704;50.470;12.072;2023-06-14T08:03:12;4.15;;;3.80;;
9330;SDS011;4704;50.470;12.072;2023-06-14T08:05:40;4.28;;;3.60;;
9330;SDS011;4704;50.470;12.072;2023-06-14T08:08:08;3.75;;;3.45;;
9330;SDS011;4704;50.470;12.072;2023-06-14T08:10:35;4.05;;;3.70;;
9330;SDS011;4704;50.470;12.072;2023-06-14T08:13:03;4.05;;;3.65;;
9330;SDS011;4704;50.470;12.072;2023-06-14T08:15:30;3.85;;;3.55;;
9330;SDS011;4704;50.470;12.072;2023-06-14T08:18:00;4.07;;;3.75;;
9330;SDS011;4704;50.470;12.072;2023-06-14T08:20:28;4.10;;;3.70;;
9330;SDS011;4704;50.470;12.072;2023-06-14T08:22:56;4.32;;;3.92;;
9330;SDS011;4704;50.470;12.072;2023-06-14T08:25:24;3.55;;;3.25;;
9330;SDS011;4704;50.470;12.072;2023-06-14T08:27:52;4.13;;;3.58;;
9330;SDS011;4704;50.470;12.072;2023-06-14T08:30:19;3.95;;;3.65;;
9330;SDS011;4704;50.470;12.072;2023-06-14T08:32:47;3.70;;;3.40;;
9330;SDS011;4704;50.470;12.072;2023-06-14T08:35:16;3.58;;;3.28;;
9330;SDS011;4704;50.470;12.072;2023-06-14T08:37:44;4.07;;;3.78;;
9330;SDS011;4704;50.470;12.072;2023-06-14T08:40:16;4.18;;;3.38;;
9330;SDS011;4704;50.470;12.072;2023-06-14T08:42:46;3.53;;;3.28;;
9330;SDS011;4704;50.470;12.072;2023-06-14T08:45:14;3.92;;;3.63;;
9330;SDS011;4704;50.470;12.072;2023-06-14T08:47:42;4.35;;;3.95;;
9330;SDS011;4704;50.470;12.072;2023-06-14T08:50:11;4.72;;;3.60;;
9330;SDS011;4704;50.470;12.072;2023-06-14T08:52:42;4.30;;;3.90;;
9330;SDS011;4704;50.470;12.072;2023-06-14T08:55:15;3.97;;;3.67;;
9330;SDS011;4704;50.470;12.072;2023-06-14T08:57:45;4.10;;;3.80;;
9330;SDS011;4704;50.470;12.072;2023-06-14T09:00:14;4.45;;;4.15;;
9330;SDS011;4704;50.470;12.072;2023-06-14T09:02:42;3.75;;;3.45;;
9330;SDS011;4704;50.470;12.072;2023-06-14T09:05:10;4.75;;;3.97;;
9330;SDS011;4704;50.470;12.072;2023-06-14T09:07:38;3.90;;;3.60;;
9330;SDS011;4704;50.470;12.072;2023-06-14T09:10:10;4.40;;;4.00;;
9330;SDS011;4704;50.470;12.072;2023-06-14T09:12:37;4.93;;;4.30;;
9330;SDS011;4704;50.470;12.072;2023-06-14T09:15:06;4.32;;;4.03;;
9330;SDS011;4704;50.470;12.072;2023-06-14T09:17:34;4.40;;;4.10;;
9330;SDS011;4704;50.470;12.072;2023-06-14T09:20:02;4.00;;;3.70;;
9330;SDS011;4704;50.470;12.072;2023-06-14T09:22:34;4.10;;;3.80;;
9330;SDS011;4704;50.470;12.072;2023-06-14T09:25:02;4.15;;;3.85;;
9330;SDS011;4704;50.470;12.072;2023-06-14T09:27:31;4.43;;;3.75;;
9330;SDS011;4704;50.470;12.072;2023-06-14T09:30:00;4.43;;;4.03;;
9330;SDS011;4704;50.470;12.072;2023-06-14T09:32:28;4.65;;;4.32;;
9330;SDS011;4704;50.470;12.072;2023-06-14T09:34:55;4.68;;;3.92;;
9330;SDS011;4704;50.470;12.072;2023-06-14T09:37:26;3.88;;;3.58;;
9330;SDS011;4704;50.470;12.072;2023-06-14T09:39:54;3.95;;;3.63;;
9330;SDS011;4704;50.470;12.072;2023-06-14T09:42:21;4.05;;;3.72;;
9330;SDS011;4704;50.470;12.072;2023-06-14T09:44:52;4.20;;;3.80;;
9330;SDS011;4704;50.470;12.072;2023-06-14T09:47:20;4.28;;;3.90;;
9330;SDS011;4704;50.470;12.072;2023-06-14T09:49:47;4.03;;;3.78;;
9330;SDS011;4704;50.470;12.072;2023-06-14T09:52:17;4.03;;;3.72;;
9330;SDS011;4704;50.470;12.072;2023-06-14T09:54:45;4.35;;;3.65;;
9330;SDS011;4704;50.470;12.072;2023-06-14T09:57:13;4.10;;;3.80;;
9330;SDS011;4704;50.470;12.072;2023-06-14T09:59:42;3.75;;;3.45;;
9330;SDS011;4704;50.470;12.072;2023-06-14T10:02:25;5.28;;;3.60;;
9330;SDS011;4704;50.470;12.072;2023-06-14T10:04:57;3.78;;;3.47;;
9330;SDS011;4704;50.470;12.072;2023-06-14T10:07:26;4.28;;;3.97;;
9330;SDS011;4704;50.470;12.072;2023-06-14T10:09:56;4.13;;;3.83;;
9330;SDS011;4704;50.470;12.072;2023-06-14T10:12:24;3.90;;;3.60;;
9330;SDS011;4704;50.470;12.072;2023-06-14T10:14:52;3.72;;;3.42;;
9330;SDS011;4704;50.470;12.072;2023-06-14T10:17:24;3.83;;;3.63;;
9330;SDS011;4704;50.470;12.072;2023-06-14T10:19:55;4.10;;;3.80;;
9330;SDS011;4704;50.470;12.072;2023-06-14T10:22:24;3.85;;;3.58;;
9330;SDS011;4704;50.470;12.072;2023-06-14T10:24:53;4.22;;;3.92;;
9330;SDS011;4704;50.470;12.072;2023-06-14T10:27:21;4.15;;;3.83;;
9330;SDS011;4704;50.470;12.072;2023-06-14T10:30:02;3.53;;;3.22;;
9330;SDS011;4704;50.470;12.072;2023-06-14T10:32:31;3.75;;;3.45;;
9330;SDS011;4704;50.470;12.072;2023-06-14T10:34:59;4.15;;;3.75;;
9330;SDS011;4704;50.470;12.072;2023-06-14T10:37:27;3.95;;;3.65;;
9330;SDS011;4704;50.470;12.072;2023-06-14T10:39:54;4.00;;;3.70;;
9330;SDS011;4704;50.470;12.072;2023-06-14T10:42:23;4.20;;;3.80;;
9330;SDS011;4704;50.470;12.072;2023-06-14T10:44:54;3.70;;;3.40;;
9330;SDS011;4704;50.470;12.072;2023-06-14T10:47:26;4.03;;;3.70;;
9330;SDS011;4704;50.470;12.072;2023-06-14T10:49:55;4.05;;;3.63;;
9330;SDS011;4704;50.470;12.072;2023-06-14T10:52:24;5.25;;;3.88;;
9330;SDS011;4704;50.470;12.072;2023-06-14T10:55:03;4.00;;;3.70;;
9330;SDS011;4704;50.470;12.072;2023-06-14T10:57:32;4.95;;;3.30;;
9330;SDS011;4704;50.470;12.072;2023-06-14T11:00:00;4.35;;;3.60;;
9330;SDS011;4704;50.470;12.072;2023-06-14T11:02:51;4.22;;;3.85;;
9330;SDS011;4704;50.470;12.072;2023-06-14T11:05:23;4.00;;;3.70;;
9330;SDS011;4704;50.470;12.072;2023-06-14T11:08:02;3.83;;;3.40;;
9330;SDS011;4704;50.470;12.072;2023-06-14T11:10:34;5.50;;;3.60;;
9330;SDS011;4704;50.470;12.072;2023-06-14T11:13:03;3.72;;;3.50;;
9330;SDS011;4704;50.470;12.072;2023-06-14T11:15:30;4.10;;;3.80;;
9330;SDS011;4704;50.470;12.072;2023-06-14T11:17:59;4.72;;;4.00;;
9330;SDS011;4704;50.470;12.072;2023-06-14T11:20:30;3.95;;;3.65;;
9330;SDS011;4704;50.470;12.072;2023-06-14T11:22:57;4.38;;;4.07;;
9330;SDS011;4704;50.470;12.072;2023-06-14T11:25:25;4.30;;;3.90;;
9330;SDS011;4704;50.470;12.072;2023-06-14T11:27:53;3.70;;;3.50;;
9330;SDS011;4704;50.470;12.072;2023-06-14T11:30:20;4.13;;;3.70;;
9330;SDS011;4704;50.470;12.072;2023-06-14T11:32:48;4.32;;;3.92;;
9330;SDS011;4704;50.470;12.072;2023-06-14T11:35:17;3.90;;;3.50;;
9330;SDS011;4704;50.470;12.072;2023-06-14T11:37:45;3.97;;;3.67;;
9330;SDS011;4704;50.470;12.072;2023-06-14T11:40:14;4.03;;;3.72;;
9330;SDS011;4704;50.470;12.072;2023-06-14T11:42:41;3.90;;;3.60;;
9330;SDS011;4704;50.470;12.072;2023-06-14T11:45:09;4.10;;;3.75;;
9330;SDS011;4704;50.470;12.072;2023-06-14T11:47:37;4.05;;;3.75;;
9330;SDS011;4704;50.470;12.072;2023-06-14T11:50:05;3.92;;;3.63;;
9330;SDS011;4704;50.470;12.072;2023-06-14T11:52:33;4.10;;;3.80;;
9330;SDS011;4704;50.470;12.072;2023-06-14T11:55:02;3.83;;;3.40;;
9330;SDS011;4704;50.470;12.072;2023-06-14T11:57:31;4.20;;;3.90;;
9330;SDS011;4704;50.470;12.072;2023-06-14T12:00:03;3.97;;;3.67;;
9330;SDS011;4704;50.470;12.072;2023-06-14T12:02:33;3.75;;;3.47;;
9330;SDS011;4704;50.470;12.072;2023-06-14T12:05:04;4.13;;;3.83;;
9330;SDS011;4704;50.470;12.072;2023-06-14T12:07:33;4.35;;;3.90;;
9330;SDS011;4704;50.470;12.072;2023-06-14T12:10:08;4.22;;;3.83;;
9330;SDS011;4704;50.470;12.072;2023-06-14T12:12:36;4.00;;;3.70;;
9330;SDS011;4704;50.470;12.072;2023-06-14T12:15:05;3.80;;;3.50;;
9330;SDS011;4704;50.470;12.072;2023-06-14T12:17:32;3.90;;;3.60;;
9330;SDS011;4704;50.470;12.072;2023-06-14T12:20:04;3.85;;;3.55;;
9330;SDS011;4704;50.470;12.072;2023-06-14T12:22:36;3.83;;;3.53;;
9330;SDS011;4704;50.470;12.072;2023-06-14T12:25:04;3.90;;;3.60;;
9330;SDS011;4704;50.470;12.072;2023-06-14T12:27:39;4.50;;;4.10;;
9330;SDS011;4704;50.470;12.072;2023-06-14T12:30:07;4.00;;;3.70;;
9330;SDS011;4704;50.470;12.072;2023-06-14T12:32:35;4.00;;;3.70;;
9330;SDS011;4704;50.470;12.072;2023-06-14T12:35:02;4.00;;;3.70;;
9330;SDS011;4704;50.470;12.072;2023-06-14T12:37:30;3.90;;;3.60;;
9330;SDS011;4704;50.470;12.072;2023-06-14T12:39:58;6.35;;;3.80;;
9330;SDS011;4704;50.470;12.072;2023-06-14T12:42:25;4.07;;;3.75;;
9330;SDS011;4704;50.470;12.072;2023-06-14T12:44:54;4.45;;;4.15;;
9330;SDS011;4704;50.470;12.072;2023-06-14T12:47:21;4.40;;;4.10;;
9330;SDS011;4704;50.470;12.072;2023-06-14T12:49:48;4.43;;;4.10;;
9330;SDS011;4704;50.470;12.072;2023-06-14T12:52:16;3.97;;;3.67;;
9330;SDS011;4704;50.470;12.072;2023-06-14T12:54:44;4.03;;;3.72;;
9330;SDS011;4704;50.470;12.072;2023-06-14T12:57:11;4.25;;;3.78;;
9330;SDS011;4704;50.470;12.072;2023-06-14T12:59:38;4.38;;;3.97;;
9330;SDS011;4704;50.470;12.072;2023-06-14T13:02:16;4.47;;;4.18;;
9330;SDS011;4704;50.470;12.072;2023-06-14T13:04:46;4.80;;;4.40;;
9330;SDS011;4704;50.470;12.072;2023-06-14T13:07:13;4.45;;;4.05;;
9330;SDS011;4704;50.470;12.072;2023-06-14T13:09:41;4.60;;;4.30;;
9330;SDS011;4704;50.470;12.072;2023-06-14T13:12:09;4.65;;;4.25;;
9330;SDS011;4704;50.470;12.072;2023-06-14T13:14:37;5.00;;;4.50;;
9330;SDS011;4704;50.470;12.072;2023-06-14T13:17:05;4.40;;;4.00;;
9330;SDS011;4704;50.470;12.072;2023-06-14T13:19:34;4.15;;;3.85;;
9330;SDS011;4704;50.470;12.072;2023-06-14T13:22:01;5.50;;;4.47;;
9330;SDS011;4704;50.470;12.072;2023-06-14T13:24:29;4.15;;;3.78;;
9330;SDS011;4704;50.470;12.072;2023-06-14T13:26:56;4.53;;;4.22;;
9330;SDS011;4704;50.470;12.072;2023-06-14T13:29:24;4.93;;;4.43;;
9330;SDS011;4704;50.470;12.072;2023-06-14T13:31:53;4.65;;;4.25;;
9330;SDS011;4704;50.470;12.072;2023-06-14T13:34:20;4.30;;;4.00;;
9330;SDS011;4704;50.470;12.072;2023-06-14T13:36:49;4.78;;;4.32;;
9330;SDS011;4704;50.470;12.072;2023-06-14T13:39:16;4.78;;;4.05;;
9330;SDS011;4704;50.470;12.072;2023-06-14T13:41:44;4.70;;;4.28;;
9330;SDS011;4704;50.470;12.072;2023-06-14T13:44:11;4.38;;;4.05;;
9330;SDS011;4704;50.470;12.072;2023-06-14T13:46:41;4.22;;;3.92;;
9330;SDS011;4704;50.470;12.072;2023-06-14T13:49:09;4.50;;;4.13;;
9330;SDS011;4704;50.470;12.072;2023-06-14T13:51:37;4.60;;;4.20;;
9330;SDS011;4704;50.470;12.072;2023-06-14T13:54:06;4.82;;;4.47;;
9330;SDS011;4704;50.470;12.072;2023-06-14T13:56:33;4.70;;;4.30;;
9330;SDS011;4704;50.470;12.072;2023-06-14T13:59:01;4.80;;;4.40;;
9330;SDS011;4704;50.470;12.072;2023-06-14T14:01:29;4.20;;;3.90;;
9330;SDS011;4704;50.470;12.072;2023-06-14T14:03:56;5.93;;;4.38;;
9330;SDS011;4704;50.470;12.072;2023-06-14T14:06:25;4.25;;;3.85;;
9330;SDS011;4704;50.470;12.072;2023-06-14T14:08:53;4.70;;;4.40;;
9330;SDS011;4704;50.470;12.072;2023-06-14T14:11:22;4.50;;;3.92;;
9330;SDS011;4704;50.470;12.072;2023-06-14T14:13:49;5.20;;;4.60;;
9330;SDS011;4704;50.470;12.072;2023-06-14T14:16:16;4.53;;;4.22;;
9330;SDS011;4704;50.470;12.072;2023-06-14T14:18:44;4.80;;;4.28;;
9330;SDS011;4704;50.470;12.072;2023-06-14T14:21:11;4.72;;;4.32;;
9330;SDS011;4704;50.470;12.072;2023-06-14T14:23:39;4.47;;;4.07;;
9330;SDS011;4704;50.470;12.072;2023-06-14T14:26:06;4.43;;;3.70;;
9330;SDS011;4704;50.470;12.072;2023-06-14T14:28:35;4.50;;;4.20;;
9330;SDS011;4704;50.470;12.072;2023-06-14T14:31:02;4.20;;;3.90;;
9330;SDS011;4704;50.470;12.072;2023-06-14T14:33:30;4.10;;;3.80;;
9330;SDS011;4704;50.470;12.072;2023-06-14T14:35:57;4.20;;;3.90;;
9330;SDS011;4704;50.470;12.072;2023-06-14T14:38:29;4.30;;;4.00;;
9330;SDS011;4704;50.470;12.072;2023-06-14T14:40:56;4.13;;;3.83;;
9330;SDS011;4704;50.470;12.072;2023-06-14T14:43:24;4.05;;;3.75;;
9330;SDS011;4704;50.470;12.072;2023-06-14T14:45:53;4.20;;;3.90;;
9330;SDS011;4704;50.470;12.072;2023-06-14T14:48:20;4.07;;;3.70;;
9330;SDS011;4704;50.470;12.072;2023-06-14T14:50:48;4.10;;;3.80;;
9330;SDS011;4704;50.470;12.072;2023-06-14T14:53:15;4.38;;;3.97;;
9330;SDS011;4704;50.470;12.072;2023-06-14T14:55:43;4.53;;;4.18;;
9330;SDS011;4704;50.470;12.072;2023-06-14T14:58:11;4.35;;;4.03;;
9330;SDS011;4704;50.470;12.072;2023-06-14T15:00:42;4.10;;;3.70;;
9330;SDS011;4704;50.470;12.072;2023-06-14T15:03:10;4.25;;;3.95;;
9330;SDS011;4704;50.470;12.072;2023-06-14T15:05:38;4.22;;;3.92;;
9330;SDS011;4704;50.470;12.072;2023-06-14T15:08:05;4.85;;;3.63;;